createdAt,value
2018-08-18T00:00:49.792Z,69.61
2018-08-18T00:03:20.412Z,70.69
2018-08-18T00:05:50.983Z,70.74
2018-08-18T00:08:21.452Z,70.85
2018-08-18T00:10:52.078Z,70.59
2018-08-18T00:13:22.465Z,69.70
2018-08-18T00:15:52.935Z,69.88
2018-08-18T00:18:23.471Z,69.74
2018-08-18T00:20:54.080Z,68.91
2018-08-18T00:23:24.616Z,68.35
2018-08-18T00:25:55.126Z,68.12
2018-08-18T00:28:26.343Z,68.73
2018-08-18T00:30:56.885Z,68.62
2018-08-18T00:33:27.374Z,68.72
2018-08-18T00:35:57.781Z,68.14
2018-08-18T00:38:28.440Z,67.74
2018-08-18T00:40:59.035Z,68.00
2018-08-18T00:43:29.563Z,68.04
2018-08-18T00:45:59.996Z,68.09
2018-08-18T00:48:31.315Z,67.57
2018-08-18T00:51:02.416Z,67.43
2018-08-18T00:53:33.068Z,67.05
2018-08-18T00:56:05.075Z,67.11
2018-08-18T00:58:35.320Z,67.43
2018-08-18T01:01:06.998Z,67.35
2018-08-18T01:03:43.506Z,67.71
2018-08-18T01:06:26.520Z,67.34
2018-08-18T01:08:58.133Z,66.84
2018-08-18T01:11:29.257Z,66.87
2018-08-18T01:14:35.464Z,67.10
2018-08-18T01:17:05.981Z,67.49
2018-08-18T01:19:36.511Z,67.66
2018-08-18T01:22:07.753Z,66.92
2018-08-18T01:24:38.177Z,67.35
2018-08-18T01:27:08.812Z,66.97
2018-08-18T01:29:39.292Z,66.83
2018-08-18T01:32:09.863Z,67.00
2018-08-18T01:34:40.361Z,67.41
2018-08-18T01:37:19.954Z,66.70
2018-08-18T01:39:53.504Z,67.03
2018-08-18T01:42:24.869Z,68.01
2018-08-18T01:44:55.992Z,68.36
2018-08-18T01:47:26.498Z,69.47
2018-08-18T01:49:57.388Z,69.78
2018-08-18T01:52:28.110Z,69.69
2018-08-18T01:54:58.976Z,69.15
2018-08-18T01:57:29.538Z,69.38
2018-08-18T02:00:00.772Z,69.36
2018-08-18T02:02:31.754Z,69.06
2018-08-18T02:05:12.293Z,69.27
2018-08-18T02:07:42.943Z,68.85
2018-08-18T02:10:13.447Z,69.81
2018-08-18T02:13:02.397Z,69.01
2018-08-18T02:15:33.325Z,69.05
2018-08-18T02:18:03.769Z,69.41
2018-08-18T02:20:34.207Z,69.76
2018-08-18T02:23:04.800Z,69.03
2018-08-18T02:25:35.784Z,68.06
2018-08-18T02:28:07.432Z,68.65
2018-08-18T02:30:38.003Z,68.26
2018-08-18T02:33:08.800Z,68.93
2018-08-18T02:35:39.500Z,68.45
2018-08-18T02:38:09.894Z,68.52
2018-08-18T02:40:40.244Z,68.16
2018-08-18T02:43:23.781Z,68.32
2018-08-18T02:45:54.222Z,68.15
2018-08-18T02:48:24.661Z,68.28
2018-08-18T02:50:55.112Z,68.25
2018-08-18T02:53:28.664Z,67.40
2018-08-18T02:55:59.190Z,67.75
2018-08-18T02:58:29.748Z,68.38
2018-08-18T03:01:00.244Z,68.05
2018-08-18T03:03:30.712Z,68.05
2018-08-18T03:06:17.277Z,69.09
2018-08-18T03:08:47.825Z,68.32
2018-08-18T03:11:18.325Z,69.54
2018-08-18T03:13:48.694Z,69.68
2018-08-18T03:16:18.986Z,69.50
2018-08-18T03:18:51.888Z,70.50
2018-08-18T03:21:30.938Z,70.32
2018-08-18T03:24:15.678Z,69.99
2018-08-18T03:26:48.583Z,70.61
2018-08-18T03:29:19.899Z,70.40
2018-08-18T03:31:50.655Z,70.97
2018-08-18T03:34:21.351Z,70.83
2018-08-18T03:36:52.997Z,71.17
2018-08-18T03:39:29.159Z,70.58
2018-08-18T03:42:01.056Z,72.06
2018-08-18T03:44:31.796Z,72.21
2018-08-18T03:47:02.257Z,72.22
2018-08-18T03:49:33.076Z,72.02
2018-08-18T03:52:03.533Z,71.56
2018-08-18T03:54:34.841Z,70.58
2018-08-18T03:57:05.435Z,71.43
2018-08-18T03:59:35.887Z,71.31
2018-08-18T04:02:06.660Z,71.00
2018-08-18T04:04:38.040Z,71.64
2018-08-18T04:07:09.467Z,71.70
2018-08-18T04:09:40.348Z,71.43
2018-08-18T04:12:11.654Z,71.37
2018-08-18T04:14:43.357Z,71.42
2018-08-18T04:17:30.107Z,72.14
2018-08-18T04:20:00.519Z,71.08
2018-08-18T04:22:32.058Z,71.11
2018-08-18T04:25:02.433Z,71.27
2018-08-18T04:27:46.302Z,71.56
2018-08-18T04:30:21.919Z,71.03
2018-08-18T04:32:55.815Z,71.83
2018-08-18T04:35:27.429Z,70.81
2018-08-18T04:37:59.246Z,72.09
2018-08-18T04:40:29.699Z,71.38
2018-08-18T04:43:01.359Z,71.74
2018-08-18T04:45:31.716Z,70.37
2018-08-18T04:48:02.232Z,69.55
2018-08-18T04:50:32.625Z,69.39
2018-08-18T04:53:03.286Z,68.53
2018-08-18T04:55:33.786Z,68.16
2018-08-18T04:58:04.762Z,69.02
2018-08-18T05:00:35.055Z,69.59
2018-08-18T05:03:05.569Z,68.78
2018-08-18T05:05:35.991Z,68.93
2018-08-18T05:08:06.471Z,68.68
2018-08-18T05:10:38.165Z,69.34
2018-08-18T05:13:08.841Z,68.85
2018-08-18T05:15:39.052Z,68.32
2018-08-18T05:18:09.683Z,68.47
2018-08-18T05:20:40.149Z,67.93
2018-08-18T05:23:22.408Z,66.92
2018-08-18T05:25:53.667Z,63.06
2018-08-18T05:28:24.041Z,59.85
2018-08-18T05:30:54.946Z,58.39
2018-08-18T05:33:25.183Z,55.52
2018-08-18T05:35:55.681Z,53.75
2018-08-18T05:38:26.441Z,51.96
2018-08-18T05:40:56.938Z,49.53
2018-08-18T05:43:27.508Z,50.32
2018-08-18T05:45:58.002Z,49.85
2018-08-18T05:48:28.398Z,49.13
2018-08-18T05:50:58.835Z,47.42
2018-08-18T05:53:30.356Z,46.37
2018-08-18T05:56:01.423Z,45.95
2018-08-18T05:58:51.773Z,45.15
2018-08-18T06:01:34.120Z,45.62
2018-08-18T06:04:12.506Z,46.40
2018-08-18T06:06:44.085Z,46.94
2018-08-18T06:09:15.878Z,45.40
2018-08-18T06:11:46.470Z,43.91
2018-08-18T06:14:17.573Z,41.99
2018-08-18T06:16:48.448Z,41.90
2018-08-18T06:19:18.914Z,41.66
2018-08-18T06:21:49.459Z,44.17
2018-08-18T06:24:20.697Z,43.79
2018-08-18T06:26:51.281Z,43.04
2018-08-18T06:29:22.471Z,41.17
2018-08-18T06:32:02.401Z,40.81
2018-08-18T06:34:34.809Z,41.78
2018-08-18T06:37:05.751Z,39.95
2018-08-18T06:39:56.604Z,39.95
2018-08-18T06:42:43.385Z,39.44
2018-08-18T06:45:17.205Z,37.95
2018-08-18T06:47:48.322Z,37.06
2018-08-18T06:50:19.561Z,37.05
2018-08-18T06:52:50.175Z,38.68
2018-08-18T06:55:21.392Z,39.43
2018-08-18T06:57:54.813Z,37.52
2018-08-18T07:00:26.333Z,35.49
2018-08-18T07:02:56.735Z,35.18
2018-08-18T07:05:27.213Z,34.64
2018-08-18T07:07:57.774Z,34.79
2018-08-18T07:10:34.687Z,35.43
2018-08-18T07:13:06.971Z,35.14
2018-08-18T07:15:38.747Z,34.37
2018-08-18T07:18:11.667Z,35.09
2018-08-18T07:20:42.681Z,35.57
2018-08-18T07:23:13.235Z,37.47
2018-08-18T07:26:09.980Z,35.63
2018-08-18T07:28:40.510Z,34.01
2018-08-18T07:31:11.203Z,34.33
2018-08-18T07:33:41.667Z,33.05
2018-08-18T07:36:12.046Z,32.40
2018-08-18T07:38:42.756Z,32.31
2018-08-18T07:41:13.426Z,32.03
2018-08-18T07:43:43.825Z,32.43
2018-08-18T07:46:14.408Z,32.98
2018-08-18T07:48:44.879Z,32.65
2018-08-18T07:51:15.438Z,31.89
2018-08-18T07:53:46.070Z,31.20
2018-08-18T07:56:16.662Z,32.01
2018-08-18T07:58:47.156Z,31.87
2018-08-18T08:01:17.736Z,31.10
2018-08-18T08:03:48.335Z,30.20
2018-08-18T08:06:19.309Z,30.67
2018-08-18T08:08:50.062Z,30.63
2018-08-18T08:11:20.600Z,31.80
2018-08-18T08:13:51.148Z,31.36
2018-08-18T08:16:21.462Z,31.54
2018-08-18T08:18:52.065Z,30.96
2018-08-18T08:21:23.211Z,30.50
2018-08-18T08:23:54.358Z,30.00
2018-08-18T08:26:24.879Z,29.00
2018-08-18T08:28:55.336Z,29.55
2018-08-18T08:31:25.904Z,30.52
2018-08-18T08:33:56.379Z,31.33
2018-08-18T08:36:26.628Z,30.12
2018-08-18T08:39:00.555Z,29.72
2018-08-18T08:41:32.793Z,29.88
2018-08-18T08:44:03.293Z,30.18
2018-08-18T08:46:33.985Z,30.04
2018-08-18T08:49:04.565Z,30.80
2018-08-18T08:51:35.254Z,30.39
2018-08-18T08:54:06.084Z,30.21
2018-08-18T08:56:39.061Z,30.72
2018-08-18T08:59:09.763Z,29.64
2018-08-18T09:01:40.264Z,30.61
2018-08-18T09:04:10.839Z,30.19
2018-08-18T09:06:48.380Z,30.10
2018-08-18T09:09:18.747Z,30.54
2018-08-18T09:11:49.260Z,31.17
2018-08-18T09:14:19.701Z,30.87
2018-08-18T09:16:50.244Z,30.44
2018-08-18T09:19:21.922Z,31.35
2018-08-18T09:21:54.941Z,30.79
2018-08-18T09:24:27.799Z,29.13
2018-08-18T09:27:00.354Z,29.55
2018-08-18T09:29:35.908Z,29.66
2018-08-18T09:32:06.546Z,30.53
2018-08-18T09:34:42.263Z,29.99
2018-08-18T09:37:12.794Z,29.49
2018-08-18T09:39:44.444Z,29.98
2018-08-18T09:42:16.264Z,30.99
2018-08-18T09:44:51.232Z,29.92
2018-08-18T09:47:21.704Z,31.17
2018-08-18T09:49:52.215Z,29.78
2018-08-18T09:52:22.573Z,29.12
2018-08-18T09:54:53.174Z,29.97
2018-08-18T09:57:23.736Z,30.46
2018-08-18T09:59:54.036Z,30.02
2018-08-18T10:02:24.429Z,31.19
2018-08-18T10:04:55.232Z,29.13
2018-08-18T10:07:25.854Z,30.29
2018-08-18T10:09:56.563Z,30.84
2018-08-18T10:12:27.019Z,30.19
2018-08-18T10:14:57.661Z,29.75
2018-08-18T10:17:28.163Z,29.06
2018-08-18T10:19:59.844Z,28.75
2018-08-18T10:22:30.288Z,28.78
2018-08-18T10:25:00.702Z,28.52
2018-08-18T10:27:31.272Z,28.86
2018-08-18T10:30:01.865Z,29.27
2018-08-18T10:32:34.555Z,28.77
2018-08-18T10:35:05.105Z,28.23
2018-08-18T10:37:35.654Z,27.57
2018-08-18T10:40:10.807Z,27.19
2018-08-18T10:42:41.597Z,28.12
2018-08-18T10:45:12.237Z,27.83
2018-08-18T10:47:42.908Z,27.74
2018-08-18T10:51:30.451Z,28.19
2018-08-18T10:54:03.142Z,27.82
2018-08-18T10:56:33.565Z,27.31
2018-08-18T10:59:21.099Z,27.67
2018-08-18T11:02:09.280Z,27.60
2018-08-18T11:04:39.795Z,28.75
2018-08-18T11:07:10.417Z,27.73
2018-08-18T11:09:40.824Z,28.18
2018-08-18T11:12:11.284Z,28.70
2018-08-18T11:14:44.094Z,27.85
2018-08-18T11:17:14.447Z,28.58
2018-08-18T11:19:44.931Z,28.30
2018-08-18T11:23:05.016Z,27.81
2018-08-18T11:25:38.029Z,27.95
2018-08-18T11:28:09.623Z,29.10
2018-08-18T11:30:40.368Z,28.06
2018-08-18T11:33:12.145Z,28.11
2018-08-18T11:35:42.780Z,29.31
2018-08-18T11:38:15.156Z,28.57
2018-08-18T11:40:46.007Z,29.15
2018-08-18T11:43:17.444Z,28.67
2018-08-18T11:45:47.775Z,28.23
2018-08-18T11:48:20.382Z,28.76
2018-08-18T11:50:51.815Z,28.50
2018-08-18T11:53:22.313Z,28.17
2018-08-18T11:55:52.918Z,28.17
2018-08-18T11:58:24.720Z,28.48
2018-08-18T12:00:59.303Z,28.10
2018-08-18T12:03:35.306Z,28.69
2018-08-18T12:06:06.734Z,27.88
2018-08-18T12:08:37.441Z,28.31
2018-08-18T12:11:08.671Z,27.75
2018-08-18T12:13:42.900Z,28.66
2018-08-18T12:16:19.252Z,28.02
2018-08-18T12:18:50.012Z,29.41
2018-08-18T12:21:20.507Z,30.08
2018-08-18T12:23:51.110Z,29.65
2018-08-18T12:26:23.518Z,29.28
2018-08-18T12:28:56.317Z,28.27
2018-08-18T12:31:28.127Z,28.66
2018-08-18T12:33:58.758Z,28.96
2018-08-18T12:36:29.248Z,28.16
2018-08-18T12:38:59.637Z,28.51
2018-08-18T12:41:30.062Z,27.21
2018-08-18T12:44:09.928Z,27.78
2018-08-18T12:46:45.542Z,28.48
2018-08-18T12:49:15.867Z,28.06
2018-08-18T12:51:49.219Z,27.63
2018-08-18T12:54:21.877Z,27.55
2018-08-18T12:56:54.113Z,27.68
2018-08-18T12:59:25.331Z,29.12
2018-08-18T13:01:58.997Z,28.39
2018-08-18T13:04:31.033Z,27.31
2018-08-18T13:07:07.340Z,27.41
2018-08-18T13:09:40.150Z,28.29
2018-08-18T13:12:10.706Z,27.18
2018-08-18T13:14:41.195Z,27.66
2018-08-18T13:17:11.469Z,27.01
2018-08-18T13:19:42.110Z,26.47
2018-08-18T13:22:12.552Z,27.56
2018-08-18T13:24:42.916Z,27.12
2018-08-18T13:27:13.512Z,27.35
2018-08-18T13:29:43.872Z,25.58
2018-08-18T13:32:14.288Z,26.76
2018-08-18T13:34:44.804Z,26.21
2018-08-18T13:37:15.233Z,25.58
2018-08-18T13:39:45.606Z,25.52
2018-08-18T13:42:25.595Z,26.28
2018-08-18T13:44:56.287Z,25.84
2018-08-18T13:47:26.879Z,25.54
2018-08-18T13:50:02.372Z,26.37
2018-08-18T13:52:42.019Z,25.95
2018-08-18T13:55:12.820Z,26.78
2018-08-18T13:57:43.327Z,27.16
2018-08-18T14:00:17.491Z,26.96
2018-08-18T14:02:48.144Z,26.68
2018-08-18T14:05:23.548Z,26.54
2018-08-18T14:08:00.737Z,26.74
2018-08-18T14:10:31.285Z,27.39
2018-08-18T14:13:04.112Z,26.43
2018-08-18T14:15:34.437Z,26.35
2018-08-18T14:18:11.571Z,26.96
2018-08-18T14:21:00.974Z,26.37
2018-08-18T14:23:31.588Z,26.75
2018-08-18T14:26:02.005Z,26.92
2018-08-18T14:28:32.491Z,26.33
2018-08-18T14:31:02.951Z,26.60
2018-08-18T14:33:33.401Z,27.24
2018-08-18T14:36:10.900Z,26.82
2018-08-18T14:38:42.440Z,25.83
2018-08-18T14:41:13.552Z,26.44
2018-08-18T14:43:43.929Z,26.90
2018-08-18T14:46:16.124Z,26.01
2018-08-18T14:48:46.445Z,27.02
2018-08-18T14:51:16.984Z,26.70
2018-08-18T14:53:47.364Z,27.59
2018-08-18T14:56:17.854Z,27.62
2018-08-18T14:58:48.297Z,27.20
2018-08-18T15:01:18.605Z,27.46
2018-08-18T15:03:49.100Z,28.44
2018-08-18T15:06:19.444Z,27.64
2018-08-18T15:08:49.924Z,27.12
2018-08-18T15:11:20.083Z,28.62
2018-08-18T15:13:50.476Z,27.61
2018-08-18T15:16:20.952Z,28.72
2018-08-18T15:18:51.267Z,29.55
2018-08-18T15:21:21.665Z,27.97
2018-08-18T15:23:51.919Z,29.07
2018-08-18T15:26:22.489Z,28.16
2018-08-18T15:28:52.885Z,28.52
2018-08-18T15:31:23.209Z,29.66
2018-08-18T15:33:53.719Z,29.41
2018-08-18T15:36:33.267Z,29.05
2018-08-18T15:39:04.057Z,30.05
2018-08-18T15:41:34.570Z,29.40
2018-08-18T15:44:11.194Z,29.39
2018-08-18T15:46:41.597Z,29.79
2018-08-18T15:49:14.019Z,29.47
2018-08-18T15:51:44.415Z,29.48
2018-08-18T15:54:14.800Z,29.11
2018-08-18T15:56:45.764Z,30.33
2018-08-18T15:59:16.250Z,28.98
2018-08-18T16:01:46.668Z,29.61
2018-08-18T16:04:17.008Z,30.85
2018-08-18T16:06:55.101Z,29.90
2018-08-18T16:09:25.560Z,30.04
2018-08-18T16:11:56.127Z,30.42
2018-08-18T16:14:37.681Z,30.85
2018-08-18T16:17:08.161Z,31.04
2018-08-18T16:19:38.624Z,30.52
2018-08-18T16:22:09.740Z,30.63
2018-08-18T16:24:45.420Z,30.95
2018-08-18T16:27:15.729Z,31.49
2018-08-18T16:29:46.212Z,30.63
2018-08-18T16:32:25.191Z,31.50
2018-08-18T16:35:02.095Z,30.73
2018-08-18T16:37:35.003Z,31.01
2018-08-18T16:40:05.429Z,31.11
2018-08-18T16:42:35.759Z,31.38
2018-08-18T16:45:06.814Z,32.09
2018-08-18T16:47:45.992Z,32.38
2018-08-18T16:50:16.573Z,31.07
2018-08-18T16:52:46.908Z,31.14
2018-08-18T16:55:17.851Z,31.49
2018-08-18T16:57:48.269Z,32.40
2018-08-18T17:00:18.532Z,32.30
2018-08-18T17:02:48.927Z,32.39
2018-08-18T17:05:19.254Z,32.80
2018-08-18T17:07:49.577Z,32.91
2018-08-18T17:10:19.824Z,32.75
2018-08-18T17:12:50.338Z,32.98
2018-08-18T17:15:20.792Z,33.22
2018-08-18T17:17:51.233Z,34.43
2018-08-18T17:20:21.741Z,34.59
2018-08-18T17:22:52.196Z,34.64
2018-08-18T17:25:25.039Z,34.62
2018-08-18T17:27:55.584Z,34.75
2018-08-18T17:30:25.909Z,35.16
2018-08-18T17:32:56.152Z,34.73
2018-08-18T17:35:26.646Z,35.47
2018-08-18T17:37:57.667Z,35.83
2018-08-18T17:40:28.041Z,35.05
2018-08-18T17:42:58.493Z,35.11
2018-08-18T17:45:29.044Z,36.59
2018-08-18T17:47:59.510Z,36.59
2018-08-18T17:50:29.903Z,36.72
2018-08-18T17:53:00.381Z,36.29
2018-08-18T17:55:31.000Z,36.47
2018-08-18T17:58:01.465Z,36.32
2018-08-18T18:00:33.215Z,37.20
2018-08-18T18:03:03.788Z,37.65
2018-08-18T18:05:35.482Z,36.84
2018-08-18T18:08:07.202Z,37.66
2018-08-18T18:10:39.168Z,37.91
2018-08-18T18:15:53.330Z,38.79
2018-08-18T18:18:25.103Z,38.92
2018-08-18T18:20:56.175Z,38.84
2018-08-18T18:23:26.648Z,38.73
2018-08-18T18:25:57.138Z,39.16
2018-08-18T18:28:27.583Z,39.28
2018-08-18T18:30:58.209Z,39.13
2018-08-18T18:33:28.790Z,39.68
2018-08-18T18:35:59.161Z,39.14
2018-08-18T18:38:29.541Z,39.89
2018-08-18T18:41:00.005Z,40.41
2018-08-18T18:43:30.480Z,40.60
2018-08-18T18:46:01.026Z,39.97
2018-08-18T18:48:31.495Z,40.79
2018-08-18T18:51:01.869Z,41.44
2018-08-18T18:53:48.508Z,41.61
2018-08-18T18:56:19.042Z,41.13
2018-08-18T18:58:49.440Z,42.21
2018-08-18T19:01:21.025Z,41.87
2018-08-18T19:03:51.689Z,42.89
2018-08-18T19:06:30.380Z,43.40
2018-08-18T19:09:02.516Z,43.10
2018-08-18T19:11:33.195Z,44.01
2018-08-18T19:14:03.697Z,44.21
2018-08-18T19:16:34.162Z,43.92
2018-08-18T19:19:04.665Z,44.94
2018-08-18T19:21:35.449Z,44.32
2018-08-18T19:24:26.838Z,44.83
2018-08-18T19:27:00.347Z,44.80
2018-08-18T19:29:30.765Z,45.94
2018-08-18T19:32:01.887Z,45.43
2018-08-18T19:34:32.295Z,46.07
2018-08-18T19:37:05.210Z,46.29
2018-08-18T19:39:36.549Z,46.87
2018-08-18T19:42:12.930Z,47.53
2018-08-18T19:44:46.528Z,47.38
2018-08-18T19:47:22.562Z,46.93
2018-08-18T19:49:53.134Z,47.55
2018-08-18T19:52:25.042Z,47.48
2018-08-18T19:54:55.447Z,47.36
2018-08-18T19:57:30.711Z,47.73
2018-08-18T20:00:11.367Z,47.98
2018-08-18T20:03:03.964Z,48.71
2018-08-18T20:05:34.295Z,48.75
2018-08-18T20:08:04.589Z,48.34
2018-08-18T20:10:56.333Z,48.59
2018-08-18T20:13:28.321Z,49.56
2018-08-18T20:16:00.236Z,49.33
2018-08-18T20:18:30.917Z,49.48
2018-08-18T20:21:01.208Z,49.76
2018-08-18T20:23:41.625Z,49.44
2018-08-18T20:26:12.019Z,49.43
2018-08-18T20:28:42.352Z,49.92
2018-08-18T20:31:12.796Z,48.90
2018-08-18T20:33:43.211Z,48.87
2018-08-18T20:36:13.776Z,49.85
2018-08-18T20:38:49.820Z,49.74
2018-08-18T20:41:20.061Z,50.73
2018-08-18T20:43:50.447Z,51.78
2018-08-18T20:46:20.692Z,51.48
2018-08-18T20:48:50.963Z,52.01
2018-08-18T20:51:35.630Z,51.71
2018-08-18T20:54:06.202Z,51.76
2018-08-18T20:56:36.556Z,51.63
2018-08-18T20:59:07.584Z,51.71
2018-08-18T21:01:38.820Z,52.08
2018-08-18T21:04:09.320Z,52.91
2018-08-18T21:06:40.215Z,52.50
2018-08-18T21:09:26.242Z,53.09
2018-08-18T21:11:56.744Z,53.05
2018-08-18T21:14:30.464Z,52.68
2018-08-18T21:17:00.976Z,52.48
2018-08-18T21:19:31.385Z,53.72
2018-08-18T21:22:01.662Z,53.00
2018-08-18T21:24:31.717Z,53.69
2018-08-18T21:27:01.928Z,52.74
2018-08-18T21:29:32.004Z,53.20
2018-08-18T21:32:02.132Z,53.02
2018-08-18T21:34:44.034Z,53.27
2018-08-18T21:37:14.460Z,53.39
2018-08-18T21:39:44.939Z,53.21
2018-08-18T21:42:15.436Z,52.73
2018-08-18T21:44:45.811Z,53.36
2018-08-18T21:47:16.628Z,53.34
2018-08-18T21:49:47.891Z,53.33
2018-08-18T21:52:18.221Z,53.99
2018-08-18T21:54:48.635Z,53.55
2018-08-18T21:57:18.963Z,54.31
2018-08-18T21:59:59.775Z,54.18
2018-08-18T22:02:43.139Z,54.33
2018-08-18T22:05:14.985Z,54.06
2018-08-18T22:07:51.709Z,54.15
2018-08-18T22:10:22.295Z,55.21
2018-08-18T22:12:52.892Z,55.02
2018-08-18T22:15:23.409Z,55.06
2018-08-18T22:17:54.517Z,55.33
2018-08-18T22:20:24.927Z,54.14
2018-08-18T22:22:55.485Z,54.73
2018-08-18T22:25:26.063Z,55.29
2018-08-18T22:27:57.011Z,55.21
2018-08-18T22:30:28.148Z,55.51
2018-08-18T22:32:58.599Z,55.27
2018-08-18T22:35:29.127Z,55.44
2018-08-18T22:37:59.748Z,55.27
2018-08-18T22:40:31.099Z,55.89
2018-08-18T22:43:01.468Z,55.65
2018-08-18T22:45:32.067Z,55.23
2018-08-18T22:48:02.645Z,55.40
2018-08-18T22:50:33.050Z,55.63
2018-08-18T22:53:03.616Z,55.89
2018-08-18T22:55:34.205Z,56.49
2018-08-18T22:58:04.710Z,56.39
2018-08-18T23:00:40.529Z,56.68
2018-08-18T23:03:11.184Z,56.58
2018-08-18T23:05:41.683Z,56.66
2018-08-18T23:08:12.246Z,56.70
2018-08-18T23:10:42.942Z,56.62
2018-08-18T23:13:13.499Z,57.06
2018-08-18T23:15:44.169Z,57.57
2018-08-18T23:18:14.771Z,57.02
2018-08-18T23:20:45.368Z,57.63
2018-08-18T23:23:15.727Z,57.67
2018-08-18T23:25:46.147Z,56.90
2018-08-18T23:28:16.423Z,57.76
2018-08-18T23:30:47.028Z,57.40
2018-08-18T23:33:17.678Z,58.21
2018-08-18T23:35:48.203Z,57.65
2018-08-18T23:38:18.709Z,57.71
2018-08-18T23:40:50.492Z,58.17
2018-08-18T23:43:20.861Z,58.30
2018-08-18T23:45:51.353Z,57.83
2018-08-18T23:48:21.661Z,58.46
2018-08-18T23:50:51.971Z,58.11
2018-08-18T23:53:22.279Z,57.93
2018-08-18T23:55:58.845Z,59.04
2018-08-18T23:58:30.468Z,58.44
